createdAt,value
2023-01-30T09:56:03.622Z,64.18
2023-01-30T10:01:58.405Z,64.14
2023-01-30T10:07:38.190Z,64.17
2023-01-30T10:13:10.209Z,64.15
2023-01-30T10:24:29.297Z,64.24
2023-01-30T10:40:37.507Z,67.10
2023-01-30T11:14:05.720Z,64.65
2023-01-30T11:24:43.933Z,64.69
2023-01-30T11:29:45.729Z,64.63
2023-01-30T11:35:04.986Z,64.88
2023-01-30T11:40:19.629Z,64.81
2023-01-30T11:50:49.654Z,64.86
2023-01-30T11:56:02.905Z,64.66
2023-01-30T12:01:09.383Z,64.91
2023-01-30T12:06:14.798Z,64.79
2023-01-30T12:11:26.846Z,64.83
2023-01-30T12:16:51.077Z,64.61
2023-01-30T12:22:01.609Z,64.85
2023-01-30T12:27:06.364Z,64.75
2023-01-30T12:32:14.310Z,64.93
2023-01-30T12:37:41.031Z,64.84
2023-01-30T12:43:03.267Z,64.95
2023-01-30T12:48:17.684Z,64.92
2023-01-30T12:54:07.926Z,64.84
2023-01-30T13:05:07.396Z,64.85
2023-01-30T13:40:06.888Z,65.01
2023-01-30T14:07:31.256Z,65.29
2023-01-30T15:34:52.442Z,65.27
2023-01-30T15:40:18.030Z,65.41
2023-01-30T15:45:28.679Z,65.39
2023-01-30T15:50:37.657Z,65.40
2023-01-30T15:55:44.691Z,65.50
2023-01-30T16:17:50.481Z,65.37
2023-01-30T16:39:56.782Z,65.61
2023-01-30T16:45:33.041Z,65.49
2023-01-30T16:50:38.279Z,65.57
2023-01-30T16:56:13.366Z,65.60
2023-01-30T17:01:15.603Z,65.65
2023-01-30T17:12:36.375Z,65.70
2023-01-30T17:17:39.481Z,65.62
2023-01-30T17:22:49.502Z,65.50
2023-01-30T17:27:55.574Z,65.61
2023-01-30T17:32:59.610Z,65.57
2023-01-30T17:38:06.104Z,65.55
2023-01-30T17:43:15.578Z,65.50
2023-01-30T17:48:21.574Z,65.64
2023-01-30T17:53:56.732Z,65.51
2023-01-30T17:59:00.671Z,65.51
2023-01-30T18:04:02.632Z,65.44
2023-01-30T18:09:07.481Z,65.57
2023-01-30T18:14:10.542Z,65.72
2023-01-30T18:19:13.930Z,65.54
2023-01-30T18:24:21.435Z,65.61
2023-01-30T18:29:32.822Z,65.78
2023-01-30T18:34:37.202Z,65.67
2023-01-30T18:39:47.519Z,65.57
2023-01-30T18:44:57.704Z,65.79
2023-01-30T18:50:10.574Z,65.68
2023-01-30T18:55:14.527Z,65.77
2023-01-30T19:00:17.671Z,65.63
2023-01-30T19:05:19.650Z,65.72
2023-01-30T19:10:23.647Z,65.49
2023-01-30T19:15:35.537Z,65.62
2023-01-30T19:20:40.399Z,65.58
2023-01-30T19:25:44.097Z,65.68
2023-01-30T19:30:51.857Z,65.59
2023-01-30T19:35:56.350Z,65.62
2023-01-30T19:41:02.824Z,65.71
2023-01-30T19:46:13.634Z,65.52
2023-01-30T19:51:17.248Z,65.59
2023-01-30T19:56:19.314Z,65.60
2023-01-30T20:01:37.728Z,65.61
2023-01-30T20:06:42.817Z,65.80
2023-01-30T20:11:48.973Z,65.63
2023-01-30T20:16:50.797Z,65.70
2023-01-30T20:21:55.932Z,65.69
2023-01-30T20:27:00.603Z,65.66
2023-01-30T20:32:02.305Z,65.66
2023-01-30T22:01:35.563Z,65.83
2023-01-30T22:06:37.822Z,65.76
2023-01-30T22:11:56.444Z,65.96
2023-01-30T22:17:07.555Z,65.70
2023-01-30T22:22:13.387Z,65.77
2023-01-30T22:27:20.207Z,65.58
2023-01-30T22:32:37.380Z,65.73
2023-01-30T22:37:42.341Z,65.75
2023-01-30T22:42:50.761Z,65.74
2023-01-30T22:48:12.657Z,65.74
2023-01-30T22:54:58.628Z,65.68
2023-01-30T22:59:09.839Z,65.56
2023-01-30T23:04:34.463Z,65.64
2023-01-30T23:09:37.968Z,65.73
2023-01-30T23:14:42.975Z,65.90
2023-01-30T23:19:58.239Z,65.64
2023-01-30T23:25:02.749Z,65.76
2023-01-30T23:30:15.295Z,65.76
2023-01-30T23:35:17.828Z,65.70
2023-01-30T23:40:23.431Z,65.91
2023-01-30T23:45:35.193Z,65.67
2023-01-30T23:50:42.872Z,65.70
2023-01-30T23:55:54.613Z,65.65
